• Join FlightAware (Why Join?)
  • Login
  • US Flag 
03:05AM EDT


 

Airport Tracker/Info


-or-


 

Live Flight TrackerFlight Track Log ✈ SWA149 ✈ 10-Jan-2014 ✈ KPIT - KMCO

Flight Track Log - Related Links

Times and Time Zones

All times are in EST time to prevent confusion due to time zone crossing. See the SWA149 flight status page for this flight to view local times or setup timezone preferences in your user account.

Time Position Orientation Groundspeed Altitude Reporting Facility
EST Latitude Longitude Course Direction KTS MPH feet Rate Location/Type
04:06PM 40.4439 -80.3225 193° South 214 246 7,000  Level Cleveland Center
04:07PM 40.3692 -80.3167 177° South 263 303 10,800 3,480 Climbing Cleveland Center
04:08PM 40.2875 -80.3061 174° South 306 352 14,300 3,480 Climbing Cleveland Center
04:09PM 40.1742 -80.2947 176° South 342 394 18,000 3,420 Climbing Cleveland Center
04:10PM 39.8513 -80.2986 180° South  Level Estimated
04:10PM 40.0719 -80.2786 173° South 367 422 21,400  Level Cleveland Center
04:11PM 39.7422 -80.3097 193° South  Level Estimated
04:11PM 39.9675 -80.2594 172° South 379 436 24,000  Level Cleveland Center
04:12PM 39.8603 -80.2372 171° South 390 449 24,000  Level Cleveland Center
04:13PM 39.7544 -80.2158 171° South 387 445 24,000  Level Cleveland Center
04:14PM 39.6478 -80.1944 171° South 387 445 24,000 720 Level Cleveland Center
04:15PM 39.5178 -80.1675 171° South 395 455 25,600 1,740 Climbing Cleveland Center
04:16PM 39.4022 -80.1608 177° South 412 474 27,700 1,980 Climbing Cleveland Center
04:17PM 39.2883 -80.1928 192° South 417 480 29,800 2,220 Climbing Cleveland Center
04:18PM 39.1719 -80.2208 191° South 422 486 32,300 2,580 Climbing Cleveland Center
04:19PM 39.0600 -80.2458 190° South 415 478 35,200 2,400 Climbing Cleveland Center
04:20PM 38.9539 -80.2756 192° South 398 458 37,300 1,680 Climbing Cleveland Center
04:21PM 38.8269 -80.3061 191° South 389 448 38,700 1,260 Climbing Cleveland Center
04:22PM 38.7186 -80.3317 190° South 393 452 40,000 600 Climbing Cleveland Center
04:23PM 38.6114 -80.3586 191° South 393 452 40,000  Level Cleveland Center
04:24PM 38.5058 -80.3819 190° South 388 447 40,000  Level Cleveland Center
04:25PM 38.4000 -80.4072 191° South 387 445 40,000  Level Cleveland Center
04:26PM 38.2900 -80.4411 194° South 391 450 40,000  Level Washington Center
04:27PM 38.1722 -80.4678 190° South 391 450 40,000  Level Washington Center
04:28PM 38.0669 -80.4925 190° South 391 450 40,000  Level Washington Center
04:29PM 37.9597 -80.5144 189° South 391 450 40,000  Level Washington Center
04:30PM 37.8486 -80.5256 185° South 397 457 40,000  Level Washington Center
04:31PM 37.7478 -80.5400 186° South 397 457 40,000  Level Washington Center
04:34PM 37.4875 -80.5711 185° South 415 478 40,000  Level Atlanta Center
04:35PM 37.3775 -80.5839 185° South 410 472 40,000  Level Atlanta Center
04:36PM 37.2653 -80.5992 186° South 410 472 40,000  Level Atlanta Center
04:37PM 37.1553 -80.6119 185° South 405 466 40,000  Level Atlanta Center
04:38PM 37.0347 -80.6250 185° South 405 466 40,000  Level Atlanta Center
04:39PM 36.9225 -80.6400 186° South 405 466 40,000  Level Atlanta Center
04:40PM 36.8144 -80.6550 186° South 405 466 40,000  Level Atlanta Center
04:41PM 36.7189 -80.6617 183° South 399 459 40,000  Level Atlanta Center
04:42PM 36.6086 -80.6742 185° South 399 459 40,000  Level Atlanta Center
04:43PM 36.5028 -80.6917 188° South 399 459 40,000  Level Atlanta Center
04:44PM 36.3947 -80.7039 185° South 399 459 40,000  Level Atlanta Center
04:45PM 36.2844 -80.7161 185° South 399 459 40,000  Level Atlanta Center
04:46PM 36.1722 -80.7311 186° South 405 466 40,000  Level Atlanta Center
04:47PM 36.0661 -80.7456 186° South 405 466 40,000  Level Atlanta Center
04:48PM 35.9558 -80.7553 184° South 400 460 40,000  Level Atlanta Center
04:49PM 35.8458 -80.7700 186° South 405 466 40,000  Level Atlanta Center
04:50PM 35.7333 -80.7819 185° South 405 466 40,000  Level Atlanta Center
04:51PM 35.6233 -80.7967 186° South 405 466 40,000  Level Atlanta Center
04:52PM 35.5131 -80.8086 185° South 405 466 40,000  Level Atlanta Center
04:53PM 35.4028 -80.8233 186° South 405 466 40,000  Level Atlanta Center
04:54PM 35.2925 -80.8378 186° South 405 466 40,000  Level Atlanta Center
04:55PM 35.1822 -80.8497 185° South 405 466 40,000  Level Atlanta Center
04:57PM 34.9386 -80.8819 186° South 385 443 40,000  Level Jacksonville Center
04:58PM 34.8261 -80.8922 184° South 398 458 40,000  Level Jacksonville Center
04:59PM 34.7117 -80.9125 188° South 408 470 40,000  Level Jacksonville Center
05:00PM 34.6033 -80.9125 180° South 408 470 40,000  Level Jacksonville Center
05:01PM 34.4825 -80.9303 187° South 408 470 40,000  Level Jacksonville Center
05:02PM 34.3658 -80.9306 180° South 413 475 40,000  Level Jacksonville Center
05:03PM 34.2508 -80.9306 180° South 426 490 40,000  Level Jacksonville Center
05:04PM 34.1322 -80.9383 183° South 421 484 40,000  Level Jacksonville Center
05:05PM 34.0153 -80.9408 181° South 421 484 40,000  Level Jacksonville Center
05:06PM 33.8967 -80.9486 183° South 421 484 40,000  Level Jacksonville Center
05:07PM 33.7881 -80.9508 181° South 426 490 40,000  Level Jacksonville Center
05:08PM 33.6692 -80.9536 181° South 426 490 40,000  Level Jacksonville Center
05:09PM 33.5525 -80.9611 183° South 426 490 40,000  Level Jacksonville Center
05:10PM 33.4336 -80.9636 181° South 426 490 40,000  Level Jacksonville Center
05:11PM 33.3125 -80.9689 182° South 426 490 40,000  Level Jacksonville Center
05:12PM 33.1936 -80.9739 182° South 426 490 40,000  Level Jacksonville Center
05:13PM 33.0747 -80.9764 181° South 426 490 40,000  Level Jacksonville Center
05:14PM 32.9536 -80.9814 182° South 431 496 40,000  Level Jacksonville Center
05:15PM 32.8328 -80.9864 182° South 436 502 40,000  Level Jacksonville Center
05:16PM 32.7097 -80.9914 182° South 441 507 40,000  Level Jacksonville Center
05:17PM 32.5867 -80.9967 182° South 441 507 40,000  Level Jacksonville Center
05:18PM 32.4633 -80.9992 181° South 441 507 40,000  Level Jacksonville Center
05:19PM 32.3342 -81.0067 183° South 421 484 40,000  Level Jacksonville Center
05:20PM 32.2172 -81.0092 181° South 428 493 40,000  Level Jacksonville Center
05:21PM 32.1067 -81.0089 180° South 433 498 40,000 -960 Level Jacksonville Center
05:22PM 31.9731 -81.0167 183° South 439 505 38,100 -1,020 Descending Jacksonville Center
05:23PM 31.8564 -81.0214 182° South 433 498 38,000 -60 Descending Jacksonville Center
05:24PM 31.7497 -81.0261 182° South 427 491 38,000  Level Jacksonville Center
05:25PM 31.6183 -81.0311 182° South 427 491 38,000  Level Jacksonville Center
05:26PM 31.5139 -81.0333 181° South 427 491 38,000  Level Jacksonville Center
05:27PM 31.3825 -81.0383 182° South 422 486 38,000  Level Jacksonville Center
05:28PM 31.2636 -81.0456 183° South 429 494 38,000  Level Jacksonville Center
05:29PM 31.1447 -81.0503 182° South 429 494 38,000  Level Jacksonville Center
05:30PM 31.0258 -81.0525 181° South 429 494 38,000  Level Jacksonville Center
05:31PM 30.9067 -81.0572 182° South 429 494 38,000 -420 Level Jacksonville Center
05:32PM 30.7836 -81.0619 182° South 429 494 37,200 -900 Descending Jacksonville Center
05:33PM 30.6689 -81.0667 182° South 429 494 36,300 -960 Descending Jacksonville Center
05:34PM 30.5500 -81.0689 181° South 429 494 35,300 -1,200 Descending Jacksonville Center
05:35PM 30.4269 -81.0736 182° South 429 494 34,000 -660 Descending Jacksonville Center
05:36PM 30.3036 -81.0786 182° South 440 506 34,000  Level Jacksonville Center
05:37PM 30.1847 -81.0831 182° South 440 506 34,000  Level Jacksonville Center
05:38PM 30.0594 -81.0856 181° South 440 506 34,000 -300 Level Jacksonville Center
05:39PM 29.9364 -81.0925 183° South 440 506 33,500 -1,680 Descending Jacksonville Center
05:40PM 29.8406 -81.0967 182° South 440 506 30,700 -3,000 Descending Jacksonville Center
05:41PM 29.7069 -81.1017 182° South 440 506 27,500 -3,120 Descending Jacksonville Center
05:42PM 29.5881 -81.1014 180° South 434 499 24,600 -3,000 Descending Jacksonville Center
05:43PM 29.4647 -81.0942 177° South 421 484 21,600 -2,940 Descending Jacksonville Center
05:44PM 29.3500 -81.0961 181° South 409 471 18,800 -2,760 Descending Jacksonville Center
05:45PM 29.2414 -81.0886 177° South 397 457 16,100 -2,760 Descending Jacksonville Center
05:46PM 29.1369 -81.0931 182° South 379 436 13,300 -2,040 Descending Jacksonville Center
05:47PM 29.0389 -81.0900 178° South 360 414 12,100 -1,200 Descending Jacksonville Center
05:48PM 28.9553 -81.0819 175° South 308 354 11,000 -1,380 Descending Jacksonville Center
05:49PM 28.8758 -81.0692 172° South 303 349 9,400 -1,620 Descending Jacksonville Center
05:49PM 28.8333 -81.0833 196° South 278 320 8,400 -1,860 Descending Orlando TRACON
05:50PM 28.8000 -81.1500 240° Southwest 265 305 6,400 -2,040 Descending Orlando TRACON
05:51PM 28.7333 -81.2167 221° Southwest 263 303 4,200 -1,260 Descending Orlando TRACON
05:52PM 28.6833 -81.2500 210° Southwest 230 265 3,800 -600 Descending Orlando TRACON
05:53PM 28.6167 -81.2667 192° South 208 239 3,100 -660 Descending Orlando TRACON
05:54PM 28.5667 -81.2833 196° South 198 228 2,500 -660 Descending Orlando TRACON
05:55PM 28.5167 -81.3000 196° South 170 196 1,800 -720 Descending Orlando TRACON
05:56PM 28.4833 -81.3000 180° South 127 146 1,100 -660 Descending Orlando TRACON
05:57PM 28.4500 -81.3000 180° South 125 144 500 -600 Descending Orlando TRACON
05:59PM 28.4294 -81.3090 189° South  Level Estimated
06:06PM 28.4294 -81.3090 189° South  Level Estimated
06:07PM 28.4294 -81.3090 189° South  Level Estimated
06:08PM 28.4294 -81.3090 189° South  Level Estimated
06:09PM 28.4294 -81.3090 189° South  Level Estimated